sensor_id;sensor_type;location;lat;lon;timestamp;temperature;humidity
54938;DHT22;52756;52.826;6.214;2023-02-23T00:00:08;8.70;84.40
54938;DHT22;52756;52.826;6.214;2023-02-23T00:02:48;8.70;84.40
54938;DHT22;52756;52.826;6.214;2023-02-23T00:05:15;8.70;84.40
54938;DHT22;52756;52.826;6.214;2023-02-23T00:07:42;8.80;84.50
54938;DHT22;52756;52.826;6.214;2023-02-23T00:10:12;8.80;84.50
54938;DHT22;52756;52.826;6.214;2023-02-23T00:12:39;8.70;84.40
54938;DHT22;52756;52.826;6.214;2023-02-23T00:15:05;8.70;84.40
54938;DHT22;52756;52.826;6.214;2023-02-23T00:17:32;8.70;84.40
54938;DHT22;52756;52.826;6.214;2023-02-23T00:19:57;8.80;84.50
54938;DHT22;52756;52.826;6.214;2023-02-23T00:22:24;8.80;84.50
54938;DHT22;52756;52.826;6.214;2023-02-23T00:24:50;8.70;84.40
54938;DHT22;52756;52.826;6.214;2023-02-23T00:27:15;8.70;84.40
54938;DHT22;52756;52.826;6.214;2023-02-23T00:29:47;8.80;84.50
54938;DHT22;52756;52.826;6.214;2023-02-23T00:32:14;8.70;84.50
54938;DHT22;52756;52.826;6.214;2023-02-23T00:34:44;8.80;84.50
54938;DHT22;52756;52.826;6.214;2023-02-23T00:37:10;8.80;84.50
54938;DHT22;52756;52.826;6.214;2023-02-23T00:39:36;8.70;84.50
54938;DHT22;52756;52.826;6.214;2023-02-23T00:42:02;8.80;84.60
54938;DHT22;52756;52.826;6.214;2023-02-23T00:44:30;8.80;84.60
54938;DHT22;52756;52.826;6.214;2023-02-23T00:46:59;8.80;84.50
54938;DHT22;52756;52.826;6.214;2023-02-23T00:49:25;8.80;84.60
54938;DHT22;52756;52.826;6.214;2023-02-23T00:51:51;8.80;84.60
54938;DHT22;52756;52.826;6.214;2023-02-23T00:54:16;8.80;84.60
54938;DHT22;52756;52.826;6.214;2023-02-23T00:56:42;8.80;84.60
54938;DHT22;52756;52.826;6.214;2023-02-23T00:59:08;8.80;84.60
54938;DHT22;52756;52.826;6.214;2023-02-23T01:01:33;8.70;84.60
54938;DHT22;52756;52.826;6.214;2023-02-23T01:04:00;8.70;84.60
54938;DHT22;52756;52.826;6.214;2023-02-23T01:06:25;8.80;84.70
54938;DHT22;52756;52.826;6.214;2023-02-23T01:08:51;8.80;84.80
54938;DHT22;52756;52.826;6.214;2023-02-23T01:11:27;8.70;84.70
54938;DHT22;52756;52.826;6.214;2023-02-23T01:13:54;8.70;84.70
54938;DHT22;52756;52.826;6.214;2023-02-23T01:16:21;8.80;84.90
54938;DHT22;52756;52.826;6.214;2023-02-23T01:18:47;8.80;84.80
54938;DHT22;52756;52.826;6.214;2023-02-23T01:21:18;8.70;84.80
54938;DHT22;52756;52.826;6.214;2023-02-23T01:23:44;8.70;84.90
54938;DHT22;52756;52.826;6.214;2023-02-23T01:26:29;8.70;84.90
54938;DHT22;52756;52.826;6.214;2023-02-23T01:28:56;8.70;84.90
54938;DHT22;52756;52.826;6.214;2023-02-23T01:31:22;8.70;84.90
54938;DHT22;52756;52.826;6.214;2023-02-23T01:33:51;8.70;84.90
54938;DHT22;52756;52.826;6.214;2023-02-23T01:36:17;8.70;84.90
54938;DHT22;52756;52.826;6.214;2023-02-23T01:38:43;8.70;85.00
54938;DHT22;52756;52.826;6.214;2023-02-23T01:41:08;8.70;85.00
54938;DHT22;52756;52.826;6.214;2023-02-23T01:43:34;8.80;85.10
54938;DHT22;52756;52.826;6.214;2023-02-23T01:46:01;8.80;85.10
54938;DHT22;52756;52.826;6.214;2023-02-23T01:48:28;8.70;85.00
54938;DHT22;52756;52.826;6.214;2023-02-23T01:53:31;8.80;85.10
54938;DHT22;52756;52.826;6.214;2023-02-23T01:56:04;8.70;85.00
54938;DHT22;52756;52.826;6.214;2023-02-23T01:58:36;8.70;85.10
54938;DHT22;52756;52.826;6.214;2023-02-23T02:01:03;8.80;85.20
54938;DHT22;52756;52.826;6.214;2023-02-23T02:06:15;8.70;85.10
54938;DHT22;52756;52.826;6.214;2023-02-23T02:08:42;8.70;85.10
54938;DHT22;52756;52.826;6.214;2023-02-23T02:11:11;8.70;85.10
54938;DHT22;52756;52.826;6.214;2023-02-23T02:13:53;8.70;85.10
54938;DHT22;52756;52.826;6.214;2023-02-23T02:39:53;8.80;85.20
54938;DHT22;52756;52.826;6.214;2023-02-23T02:42:42;8.70;85.10
54938;DHT22;52756;52.826;6.214;2023-02-23T02:45:14;8.70;85.10
54938;DHT22;52756;52.826;6.214;2023-02-23T02:47:48;8.70;85.10
54938;DHT22;52756;52.826;6.214;2023-02-23T02:50:29;8.80;85.20
54938;DHT22;52756;52.826;6.214;2023-02-23T02:53:09;8.80;85.20
54938;DHT22;52756;52.826;6.214;2023-02-23T02:55:36;8.70;85.10
54938;DHT22;52756;52.826;6.214;2023-02-23T02:58:03;8.80;85.20
54938;DHT22;52756;52.826;6.214;2023-02-23T03:00:36;8.70;85.10
54938;DHT22;52756;52.826;6.214;2023-02-23T03:03:31;8.70;85.10
54938;DHT22;52756;52.826;6.214;2023-02-23T03:06:15;8.80;85.20
54938;DHT22;52756;52.826;6.214;2023-02-23T03:09:22;8.80;85.20
54938;DHT22;52756;52.826;6.214;2023-02-23T03:18:01;8.80;85.20
54938;DHT22;52756;52.826;6.214;2023-02-23T03:20:53;8.70;85.10
54938;DHT22;52756;52.826;6.214;2023-02-23T03:32:34;8.70;85.00
54938;DHT22;52756;52.826;6.214;2023-02-23T03:38:18;8.70;85.00
54938;DHT22;52756;52.826;6.214;2023-02-23T03:41:06;8.70;85.10
54938;DHT22;52756;52.826;6.214;2023-02-23T03:43:52;8.70;85.10
54938;DHT22;52756;52.826;6.214;2023-02-23T03:46:37;8.70;85.10
54938;DHT22;52756;52.826;6.214;2023-02-23T03:49:21;8.80;85.10
54938;DHT22;52756;52.826;6.214;2023-02-23T03:52:12;8.70;85.00
54938;DHT22;52756;52.826;6.214;2023-02-23T03:55:00;8.70;85.00
54938;DHT22;52756;52.826;6.214;2023-02-23T03:57:45;8.70;85.10
54938;DHT22;52756;52.826;6.214;2023-02-23T04:00:32;8.70;85.10
54938;DHT22;52756;52.826;6.214;2023-02-23T04:03:17;8.70;85.10
54938;DHT22;52756;52.826;6.214;2023-02-23T04:06:03;8.70;85.10
54938;DHT22;52756;52.826;6.214;2023-02-23T04:08:50;8.70;85.10
54938;DHT22;52756;52.826;6.214;2023-02-23T04:11:45;8.70;85.00
54938;DHT22;52756;52.826;6.214;2023-02-23T04:14:35;8.70;85.00
54938;DHT22;52756;52.826;6.214;2023-02-23T04:17:02;8.70;85.00
54938;DHT22;52756;52.826;6.214;2023-02-23T04:19:28;8.70;85.00
54938;DHT22;52756;52.826;6.214;2023-02-23T04:21:54;8.70;85.00
54938;DHT22;52756;52.826;6.214;2023-02-23T04:24:19;8.70;85.00
54938;DHT22;52756;52.826;6.214;2023-02-23T04:26:45;8.70;84.90
54938;DHT22;52756;52.826;6.214;2023-02-23T04:29:11;8.60;84.90
54938;DHT22;52756;52.826;6.214;2023-02-23T04:31:37;8.70;85.00
54938;DHT22;52756;52.826;6.214;2023-02-23T04:34:02;8.70;85.00
54938;DHT22;52756;52.826;6.214;2023-02-23T04:36:29;8.70;85.00
54938;DHT22;52756;52.826;6.214;2023-02-23T04:38:54;8.60;84.90
54938;DHT22;52756;52.826;6.214;2023-02-23T04:41:20;8.60;84.90
54938;DHT22;52756;52.826;6.214;2023-02-23T04:43:46;8.60;84.90
54938;DHT22;52756;52.826;6.214;2023-02-23T04:46:11;8.60;84.90
54938;DHT22;52756;52.826;6.214;2023-02-23T04:48:37;8.60;84.90
54938;DHT22;52756;52.826;6.214;2023-02-23T04:51:02;8.60;84.90
54938;DHT22;52756;52.826;6.214;2023-02-23T04:53:28;8.60;85.00
54938;DHT22;52756;52.826;6.214;2023-02-23T04:55:54;8.60;85.00
54938;DHT22;52756;52.826;6.214;2023-02-23T04:58:19;8.60;85.00
54938;DHT22;52756;52.826;6.214;2023-02-23T05:00:45;8.60;85.00
54938;DHT22;52756;52.826;6.214;2023-02-23T05:03:10;8.60;85.00
54938;DHT22;52756;52.826;6.214;2023-02-23T05:05:36;8.60;85.00
54938;DHT22;52756;52.826;6.214;2023-02-23T05:08:02;8.60;85.00
54938;DHT22;52756;52.826;6.214;2023-02-23T05:10:28;8.60;85.00
54938;DHT22;52756;52.826;6.214;2023-02-23T05:12:54;8.60;85.00
54938;DHT22;52756;52.826;6.214;2023-02-23T05:15:19;8.60;85.00
54938;DHT22;52756;52.826;6.214;2023-02-23T05:17:45;8.60;85.00
54938;DHT22;52756;52.826;6.214;2023-02-23T05:20:11;8.60;84.90
54938;DHT22;52756;52.826;6.214;2023-02-23T05:22:37;8.60;84.90
54938;DHT22;52756;52.826;6.214;2023-02-23T05:25:03;8.60;84.90
54938;DHT22;52756;52.826;6.214;2023-02-23T05:27:29;8.50;84.80
54938;DHT22;52756;52.826;6.214;2023-02-23T05:29:54;8.60;84.90
54938;DHT22;52756;52.826;6.214;2023-02-23T05:32:20;8.60;84.90
54938;DHT22;52756;52.826;6.214;2023-02-23T05:34:46;8.60;84.90
54938;DHT22;52756;52.826;6.214;2023-02-23T05:37:11;8.60;84.90
54938;DHT22;52756;52.826;6.214;2023-02-23T05:39:37;8.60;84.90
54938;DHT22;52756;52.826;6.214;2023-02-23T05:42:02;8.60;84.90
54938;DHT22;52756;52.826;6.214;2023-02-23T05:44:28;8.50;84.90
54938;DHT22;52756;52.826;6.214;2023-02-23T05:46:54;8.60;84.90
54938;DHT22;52756;52.826;6.214;2023-02-23T05:49:19;8.50;84.90
54938;DHT22;52756;52.826;6.214;2023-02-23T05:51:45;8.60;84.90
54938;DHT22;52756;52.826;6.214;2023-02-23T05:54:10;8.60;84.90
54938;DHT22;52756;52.826;6.214;2023-02-23T05:56:37;8.60;84.90
54938;DHT22;52756;52.826;6.214;2023-02-23T05:59:03;8.60;85.00
54938;DHT22;52756;52.826;6.214;2023-02-23T06:01:29;8.50;84.90
54938;DHT22;52756;52.826;6.214;2023-02-23T06:03:55;8.60;84.90
54938;DHT22;52756;52.826;6.214;2023-02-23T06:06:20;8.60;84.80
54938;DHT22;52756;52.826;6.214;2023-02-23T06:08:47;8.50;84.80
54938;DHT22;52756;52.826;6.214;2023-02-23T06:11:14;8.50;84.80
54938;DHT22;52756;52.826;6.214;2023-02-23T06:13:39;8.60;84.90
54938;DHT22;52756;52.826;6.214;2023-02-23T06:16:05;8.50;84.80
54938;DHT22;52756;52.826;6.214;2023-02-23T06:18:32;8.50;84.80
54938;DHT22;52756;52.826;6.214;2023-02-23T06:20:59;8.60;84.90
54938;DHT22;52756;52.826;6.214;2023-02-23T06:23:26;8.50;84.80
54938;DHT22;52756;52.826;6.214;2023-02-23T06:25:51;8.60;84.90
54938;DHT22;52756;52.826;6.214;2023-02-23T06:28:17;8.50;84.80
54938;DHT22;52756;52.826;6.214;2023-02-23T06:30:42;8.60;84.90
54938;DHT22;52756;52.826;6.214;2023-02-23T06:33:09;8.50;84.90
54938;DHT22;52756;52.826;6.214;2023-02-23T06:35:34;8.50;84.90
54938;DHT22;52756;52.826;6.214;2023-02-23T06:38:00;8.60;85.30
54938;DHT22;52756;52.826;6.214;2023-02-23T06:40:26;8.50;84.80
54938;DHT22;52756;52.826;6.214;2023-02-23T06:42:52;8.50;84.90
54938;DHT22;52756;52.826;6.214;2023-02-23T06:45:17;8.60;85.40
54938;DHT22;52756;52.826;6.214;2023-02-23T06:47:46;8.50;84.90
54938;DHT22;52756;52.826;6.214;2023-02-23T06:50:12;8.50;84.90
54938;DHT22;52756;52.826;6.214;2023-02-23T06:52:38;8.50;84.90
54938;DHT22;52756;52.826;6.214;2023-02-23T06:55:04;8.50;84.90
54938;DHT22;52756;52.826;6.214;2023-02-23T06:57:29;8.50;84.90
54938;DHT22;52756;52.826;6.214;2023-02-23T06:59:55;8.50;84.90
54938;DHT22;52756;52.826;6.214;2023-02-23T07:02:21;8.50;84.90
54938;DHT22;52756;52.826;6.214;2023-02-23T07:04:46;8.50;84.90
54938;DHT22;52756;52.826;6.214;2023-02-23T07:07:12;8.50;84.90
54938;DHT22;52756;52.826;6.214;2023-02-23T07:09:38;8.50;84.90
54938;DHT22;52756;52.826;6.214;2023-02-23T07:12:04;8.50;84.90
54938;DHT22;52756;52.826;6.214;2023-02-23T07:14:30;8.50;84.90
54938;DHT22;52756;52.826;6.214;2023-02-23T07:16:57;8.50;84.90
54938;DHT22;52756;52.826;6.214;2023-02-23T07:19:23;8.50;84.90
54938;DHT22;52756;52.826;6.214;2023-02-23T07:21:48;8.50;84.90
54938;DHT22;52756;52.826;6.214;2023-02-23T07:24:14;8.50;85.00
54938;DHT22;52756;52.826;6.214;2023-02-23T07:26:40;8.40;84.90
54938;DHT22;52756;52.826;6.214;2023-02-23T07:29:08;8.50;85.00
54938;DHT22;52756;52.826;6.214;2023-02-23T07:31:34;8.50;85.00
54938;DHT22;52756;52.826;6.214;2023-02-23T07:34:00;8.50;85.00
54938;DHT22;52756;52.826;6.214;2023-02-23T07:36:25;8.50;85.00
54938;DHT22;52756;52.826;6.214;2023-02-23T07:38:51;8.50;85.00
54938;DHT22;52756;52.826;6.214;2023-02-23T07:41:16;8.50;85.40
54938;DHT22;52756;52.826;6.214;2023-02-23T07:43:42;8.50;85.00
54938;DHT22;52756;52.826;6.214;2023-02-23T07:46:09;8.50;85.40
54938;DHT22;52756;52.826;6.214;2023-02-23T07:48:34;8.50;85.00
54938;DHT22;52756;52.826;6.214;2023-02-23T07:51:00;8.50;85.10
54938;DHT22;52756;52.826;6.214;2023-02-23T07:53:26;8.50;85.10
54938;DHT22;52756;52.826;6.214;2023-02-23T07:55:55;8.50;85.10
54938;DHT22;52756;52.826;6.214;2023-02-23T07:58:21;8.50;85.10
54938;DHT22;52756;52.826;6.214;2023-02-23T08:00:47;8.50;85.20
54938;DHT22;52756;52.826;6.214;2023-02-23T08:03:12;8.50;85.10
54938;DHT22;52756;52.826;6.214;2023-02-23T08:05:38;8.50;85.20
54938;DHT22;52756;52.826;6.214;2023-02-23T08:08:04;8.50;85.10
54938;DHT22;52756;52.826;6.214;2023-02-23T08:10:30;8.50;85.10
54938;DHT22;52756;52.826;6.214;2023-02-23T08:12:56;8.50;85.20
54938;DHT22;52756;52.826;6.214;2023-02-23T08:15:22;8.50;85.20
54938;DHT22;52756;52.826;6.214;2023-02-23T08:17:47;8.50;85.20
54938;DHT22;52756;52.826;6.214;2023-02-23T08:20:13;8.50;85.20
54938;DHT22;52756;52.826;6.214;2023-02-23T08:22:38;8.50;85.30
54938;DHT22;52756;52.826;6.214;2023-02-23T08:25:04;8.50;85.30
54938;DHT22;52756;52.826;6.214;2023-02-23T08:27:33;8.50;85.30
54938;DHT22;52756;52.826;6.214;2023-02-23T08:29:59;8.50;85.40
54938;DHT22;52756;52.826;6.214;2023-02-23T08:32:28;8.50;85.40
54938;DHT22;52756;52.826;6.214;2023-02-23T08:34:55;8.50;85.50
54938;DHT22;52756;52.826;6.214;2023-02-23T08:37:22;8.50;85.50
54938;DHT22;52756;52.826;6.214;2023-02-23T08:39:48;8.60;85.60
54938;DHT22;52756;52.826;6.214;2023-02-23T08:42:15;8.50;85.60
54938;DHT22;52756;52.826;6.214;2023-02-23T08:44:40;8.60;85.70
54938;DHT22;52756;52.826;6.214;2023-02-23T08:47:06;8.60;85.70
54938;DHT22;52756;52.826;6.214;2023-02-23T08:49:31;8.60;85.70
54938;DHT22;52756;52.826;6.214;2023-02-23T08:51:57;8.60;85.70
54938;DHT22;52756;52.826;6.214;2023-02-23T08:54:23;8.60;85.70
54938;DHT22;52756;52.826;6.214;2023-02-23T08:56:48;8.60;85.80
54938;DHT22;52756;52.826;6.214;2023-02-23T08:59:14;8.60;85.80
54938;DHT22;52756;52.826;6.214;2023-02-23T09:01:40;8.60;85.80
54938;DHT22;52756;52.826;6.214;2023-02-23T09:04:07;8.60;85.90
54938;DHT22;52756;52.826;6.214;2023-02-23T09:06:32;8.70;86.00
54938;DHT22;52756;52.826;6.214;2023-02-23T09:09:00;8.70;85.90
54938;DHT22;52756;52.826;6.214;2023-02-23T09:11:25;8.80;85.90
54938;DHT22;52756;52.826;6.214;2023-02-23T09:13:51;8.70;85.80
54938;DHT22;52756;52.826;6.214;2023-02-23T09:16:17;8.70;85.80
54938;DHT22;52756;52.826;6.214;2023-02-23T09:18:42;8.70;85.80
54938;DHT22;52756;52.826;6.214;2023-02-23T09:21:12;8.70;85.70
54938;DHT22;52756;52.826;6.214;2023-02-23T09:23:38;8.70;85.70
54938;DHT22;52756;52.826;6.214;2023-02-23T09:26:04;8.70;85.70
54938;DHT22;52756;52.826;6.214;2023-02-23T09:28:30;8.80;85.70
54938;DHT22;52756;52.826;6.214;2023-02-23T09:31:03;8.80;86.00
54938;DHT22;52756;52.826;6.214;2023-02-23T09:33:30;8.80;85.60
54938;DHT22;52756;52.826;6.214;2023-02-23T09:35:55;8.80;85.50
54938;DHT22;52756;52.826;6.214;2023-02-23T09:38:21;8.80;85.40
54938;DHT22;52756;52.826;6.214;2023-02-23T09:40:48;8.80;85.40
54938;DHT22;52756;52.826;6.214;2023-02-23T09:43:31;8.80;85.40
54938;DHT22;52756;52.826;6.214;2023-02-23T09:48:32;8.80;85.30
54938;DHT22;52756;52.826;6.214;2023-02-23T09:50:58;8.80;85.30
54938;DHT22;52756;52.826;6.214;2023-02-23T09:53:30;8.80;85.30
54938;DHT22;52756;52.826;6.214;2023-02-23T09:55:57;8.80;85.30
54938;DHT22;52756;52.826;6.214;2023-02-23T09:58:25;8.80;85.20
54938;DHT22;52756;52.826;6.214;2023-02-23T10:03:41;8.80;85.20
54938;DHT22;52756;52.826;6.214;2023-02-23T10:06:12;8.80;85.20
54938;DHT22;52756;52.826;6.214;2023-02-23T10:08:42;8.90;85.30
54938;DHT22;52756;52.826;6.214;2023-02-23T10:17:19;8.90;85.30
54938;DHT22;52756;52.826;6.214;2023-02-23T10:19:13;8.90;85.20
54938;DHT22;52756;52.826;6.214;2023-02-23T10:21:42;8.90;85.20
54938;DHT22;52756;52.826;6.214;2023-02-23T10:24:24;8.90;85.20
54938;DHT22;52756;52.826;6.214;2023-02-23T10:27:01;9.00;85.20
54938;DHT22;52756;52.826;6.214;2023-02-23T10:29:34;9.00;85.20
54938;DHT22;52756;52.826;6.214;2023-02-23T10:32:12;9.00;85.10
54938;DHT22;52756;52.826;6.214;2023-02-23T10:34:40;9.00;85.10
54938;DHT22;52756;52.826;6.214;2023-02-23T10:37:09;9.00;85.00
54938;DHT22;52756;52.826;6.214;2023-02-23T10:39:35;9.00;85.00
54938;DHT22;52756;52.826;6.214;2023-02-23T10:42:02;9.00;85.00
54938;DHT22;52756;52.826;6.214;2023-02-23T10:44:29;9.00;85.00
54938;DHT22;52756;52.826;6.214;2023-02-23T10:46:59;9.10;85.00
54938;DHT22;52756;52.826;6.214;2023-02-23T10:49:28;9.10;85.00
54938;DHT22;52756;52.826;6.214;2023-02-23T10:51:56;9.00;85.00
54938;DHT22;52756;52.826;6.214;2023-02-23T10:56:58;9.10;85.00
54938;DHT22;52756;52.826;6.214;2023-02-23T10:59:24;9.10;85.00
54938;DHT22;52756;52.826;6.214;2023-02-23T11:01:51;9.10;85.10
54938;DHT22;52756;52.826;6.214;2023-02-23T11:04:24;9.10;85.10
54938;DHT22;52756;52.826;6.214;2023-02-23T11:06:50;9.10;85.10
54938;DHT22;52756;52.826;6.214;2023-02-23T11:09:24;9.20;85.20
54938;DHT22;52756;52.826;6.214;2023-02-23T11:11:54;9.20;85.20
54938;DHT22;52756;52.826;6.214;2023-02-23T11:14:21;9.20;85.20
54938;DHT22;52756;52.826;6.214;2023-02-23T11:16:48;9.20;85.10
54938;DHT22;52756;52.826;6.214;2023-02-23T11:19:23;9.20;85.10
54938;DHT22;52756;52.826;6.214;2023-02-23T11:21:50;9.30;85.10
54938;DHT22;52756;52.826;6.214;2023-02-23T11:24:24;9.30;85.20
54938;DHT22;52756;52.826;6.214;2023-02-23T11:26:52;9.30;85.10
54938;DHT22;52756;52.826;6.214;2023-02-23T11:29:21;9.30;85.10
54938;DHT22;52756;52.826;6.214;2023-02-23T11:31:49;9.30;85.10
54938;DHT22;52756;52.826;6.214;2023-02-23T11:34:30;9.40;85.20
54938;DHT22;52756;52.826;6.214;2023-02-23T11:36:57;9.40;85.30
54938;DHT22;52756;52.826;6.214;2023-02-23T11:39:23;9.40;85.30
54938;DHT22;52756;52.826;6.214;2023-02-23T11:44:33;9.50;85.30
54938;DHT22;52756;52.826;6.214;2023-02-23T11:46:58;9.50;85.20
54938;DHT22;52756;52.826;6.214;2023-02-23T11:49:30;9.50;85.10
54938;DHT22;52756;52.826;6.214;2023-02-23T11:51:59;9.50;85.10
54938;DHT22;52756;52.826;6.214;2023-02-23T11:54:26;9.50;84.90
54938;DHT22;52756;52.826;6.214;2023-02-23T11:56:52;9.60;84.90
54938;DHT22;52756;52.826;6.214;2023-02-23T11:59:29;9.60;84.80
54938;DHT22;52756;52.826;6.214;2023-02-23T12:04:43;9.60;84.50
54938;DHT22;52756;52.826;6.214;2023-02-23T12:10:05;9.60;84.30
54938;DHT22;52756;52.826;6.214;2023-02-23T12:12:33;9.60;84.20
54938;DHT22;52756;52.826;6.214;2023-02-23T12:15:09;9.60;84.20
54938;DHT22;52756;52.826;6.214;2023-02-23T12:17:39;9.60;84.40
54938;DHT22;52756;52.826;6.214;2023-02-23T12:20:14;9.60;84.40
54938;DHT22;52756;52.826;6.214;2023-02-23T12:22:48;9.70;84.40
54938;DHT22;52756;52.826;6.214;2023-02-23T12:32:55;9.70;84.10
54938;DHT22;52756;52.826;6.214;2023-02-23T12:40:36;9.80;84.10
54938;DHT22;52756;52.826;6.214;2023-02-23T12:45:53;9.80;83.80
54938;DHT22;52756;52.826;6.214;2023-02-23T12:51:38;9.80;83.90
54938;DHT22;52756;52.826;6.214;2023-02-23T12:53:56;9.80;84.30
54938;DHT22;52756;52.826;6.214;2023-02-23T12:56:56;9.80;83.80
54938;DHT22;52756;52.826;6.214;2023-02-23T12:59:19;9.90;83.80
54938;DHT22;52756;52.826;6.214;2023-02-23T13:11:48;9.90;83.60
54938;DHT22;52756;52.826;6.214;2023-02-23T13:14:17;9.90;83.50
54938;DHT22;52756;52.826;6.214;2023-02-23T13:19:38;9.90;83.40
54938;DHT22;52756;52.826;6.214;2023-02-23T13:24:47;9.90;83.50
54938;DHT22;52756;52.826;6.214;2023-02-23T13:29:45;10.00;83.40
54938;DHT22;52756;52.826;6.214;2023-02-23T13:32:46;10.00;83.40
54938;DHT22;52756;52.826;6.214;2023-02-23T13:35:06;10.00;83.50
54938;DHT22;52756;52.826;6.214;2023-02-23T13:42:58;10.10;83.40
54938;DHT22;52756;52.826;6.214;2023-02-23T13:48:05;10.00;83.20
54938;DHT22;52756;52.826;6.214;2023-02-23T13:50:44;10.00;83.20
54938;DHT22;52756;52.826;6.214;2023-02-23T13:53:27;10.00;83.20
54938;DHT22;52756;52.826;6.214;2023-02-23T13:55:52;10.00;83.00
54938;DHT22;52756;52.826;6.214;2023-02-23T13:58:28;10.00;83.00
54938;DHT22;52756;52.826;6.214;2023-02-23T14:01:06;10.00;82.90
54938;DHT22;52756;52.826;6.214;2023-02-23T14:03:34;10.00;83.00
54938;DHT22;52756;52.826;6.214;2023-02-23T14:06:01;10.00;83.00
54938;DHT22;52756;52.826;6.214;2023-02-23T14:08:30;10.00;83.10
54938;DHT22;52756;52.826;6.214;2023-02-23T14:10:56;9.90;83.00
54938;DHT22;52756;52.826;6.214;2023-02-23T14:13:24;9.90;82.70
54938;DHT22;52756;52.826;6.214;2023-02-23T14:18:34;9.80;82.80
54938;DHT22;52756;52.826;6.214;2023-02-23T14:31:51;9.50;82.30
54938;DHT22;52756;52.826;6.214;2023-02-23T14:34:18;9.40;82.40
54938;DHT22;52756;52.826;6.214;2023-02-23T14:36:44;9.30;82.50
54938;DHT22;52756;52.826;6.214;2023-02-23T14:44:11;9.10;82.90
54938;DHT22;52756;52.826;6.214;2023-02-23T14:46:38;9.10;83.00
54938;DHT22;52756;52.826;6.214;2023-02-23T14:49:19;9.00;82.80
54938;DHT22;52756;52.826;6.214;2023-02-23T14:51:46;9.00;83.00
54938;DHT22;52756;52.826;6.214;2023-02-23T14:56:46;8.80;83.00
54938;DHT22;52756;52.826;6.214;2023-02-23T14:59:19;8.70;83.10
54938;DHT22;52756;52.826;6.214;2023-02-23T15:01:46;8.70;83.20
54938;DHT22;52756;52.826;6.214;2023-02-23T15:04:13;8.60;83.40
54938;DHT22;52756;52.826;6.214;2023-02-23T15:06:40;8.60;83.60
54938;DHT22;52756;52.826;6.214;2023-02-23T15:09:07;8.50;83.60
54938;DHT22;52756;52.826;6.214;2023-02-23T15:13:37;8.50;83.20
54938;DHT22;52756;52.826;6.214;2023-02-23T15:16:17;8.50;83.30
54938;DHT22;52756;52.826;6.214;2023-02-23T15:18:47;8.50;83.20
54938;DHT22;52756;52.826;6.214;2023-02-23T15:21:19;8.50;82.90
54938;DHT22;52756;52.826;6.214;2023-02-23T15:23:57;8.50;82.60
54938;DHT22;52756;52.826;6.214;2023-02-23T15:28:48;8.40;82.30
54938;DHT22;52756;52.826;6.214;2023-02-23T15:31:14;8.30;81.80
54938;DHT22;52756;52.826;6.214;2023-02-23T15:33:40;8.20;81.70
54938;DHT22;52756;52.826;6.214;2023-02-23T15:36:43;8.20;82.00
54938;DHT22;52756;52.826;6.214;2023-02-23T15:39:05;8.10;82.50
54938;DHT22;52756;52.826;6.214;2023-02-23T15:41:35;8.10;82.60
54938;DHT22;52756;52.826;6.214;2023-02-23T15:44:22;8.10;82.60
54938;DHT22;52756;52.826;6.214;2023-02-23T15:46:53;8.00;82.70
54938;DHT22;52756;52.826;6.214;2023-02-23T15:49:20;8.00;83.00
54938;DHT22;52756;52.826;6.214;2023-02-23T15:51:51;8.00;83.10
54938;DHT22;52756;52.826;6.214;2023-02-23T15:54:28;8.10;82.90
54938;DHT22;52756;52.826;6.214;2023-02-23T15:56:57;8.00;82.80
54938;DHT22;52756;52.826;6.214;2023-02-23T15:59:29;8.00;82.60
54938;DHT22;52756;52.826;6.214;2023-02-23T16:01:58;8.00;82.20
54938;DHT22;52756;52.826;6.214;2023-02-23T16:04:32;7.90;82.20
54938;DHT22;52756;52.826;6.214;2023-02-23T16:07:20;7.90;82.20
54938;DHT22;52756;52.826;6.214;2023-02-23T16:09:54;7.90;81.80
54938;DHT22;52756;52.826;6.214;2023-02-23T16:12:37;7.90;81.60
54938;DHT22;52756;52.826;6.214;2023-02-23T16:15:28;7.80;81.50
54938;DHT22;52756;52.826;6.214;2023-02-23T16:18:02;7.80;81.20
54938;DHT22;52756;52.826;6.214;2023-02-23T16:20:48;7.80;81.30
54938;DHT22;52756;52.826;6.214;2023-02-23T16:23:33;7.80;81.30
54938;DHT22;52756;52.826;6.214;2023-02-23T16:26:32;7.80;81.40
54938;DHT22;52756;52.826;6.214;2023-02-23T16:29:00;7.80;81.40
54938;DHT22;52756;52.826;6.214;2023-02-23T16:31:47;7.80;81.50
54938;DHT22;52756;52.826;6.214;2023-02-23T16:34:32;7.80;81.40
54938;DHT22;52756;52.826;6.214;2023-02-23T16:37:10;7.80;81.60
54938;DHT22;52756;52.826;6.214;2023-02-23T16:39:40;7.80;81.60
54938;DHT22;52756;52.826;6.214;2023-02-23T16:42:22;7.90;81.50
54938;DHT22;52756;52.826;6.214;2023-02-23T16:44:48;7.90;81.30
54938;DHT22;52756;52.826;6.214;2023-02-23T16:49:49;7.90;81.00
54938;DHT22;52756;52.826;6.214;2023-02-23T16:52:18;7.90;80.80
54938;DHT22;52756;52.826;6.214;2023-02-23T16:54:44;7.90;80.60
54938;DHT22;52756;52.826;6.214;2023-02-23T16:57:41;7.90;80.40
54938;DHT22;52756;52.826;6.214;2023-02-23T17:00:08;7.90;80.30
54938;DHT22;52756;52.826;6.214;2023-02-23T17:02:45;7.90;80.30
54938;DHT22;52756;52.826;6.214;2023-02-23T17:05:12;7.90;80.10
54938;DHT22;52756;52.826;6.214;2023-02-23T17:07:39;7.90;80.10
54938;DHT22;52756;52.826;6.214;2023-02-23T17:10:06;8.00;80.20
54938;DHT22;52756;52.826;6.214;2023-02-23T17:12:32;8.00;80.00
54938;DHT22;52756;52.826;6.214;2023-02-23T17:14:58;8.00;79.80
54938;DHT22;52756;52.826;6.214;2023-02-23T17:17:24;8.00;79.40
54938;DHT22;52756;52.826;6.214;2023-02-23T17:19:50;8.00;79.40
54938;DHT22;52756;52.826;6.214;2023-02-23T17:22:16;8.00;79.70
54938;DHT22;52756;52.826;6.214;2023-02-23T17:24:43;8.00;79.00
54938;DHT22;52756;52.826;6.214;2023-02-23T17:27:08;8.00;78.80
54938;DHT22;52756;52.826;6.214;2023-02-23T17:29:34;8.00;78.40
54938;DHT22;52756;52.826;6.214;2023-02-23T17:32:00;7.90;78.20
54938;DHT22;52756;52.826;6.214;2023-02-23T17:34:27;7.90;78.00
54938;DHT22;52756;52.826;6.214;2023-02-23T17:36:53;7.90;77.70
54938;DHT22;52756;52.826;6.214;2023-02-23T17:39:18;7.90;77.50
54938;DHT22;52756;52.826;6.214;2023-02-23T17:41:44;7.90;77.20
54938;DHT22;52756;52.826;6.214;2023-02-23T17:44:10;7.90;76.90
54938;DHT22;52756;52.826;6.214;2023-02-23T17:46:36;7.90;76.60
54938;DHT22;52756;52.826;6.214;2023-02-23T17:49:01;7.90;76.40
54938;DHT22;52756;52.826;6.214;2023-02-23T17:51:27;7.90;76.40
54938;DHT22;52756;52.826;6.214;2023-02-23T17:53:54;7.90;76.50
54938;DHT22;52756;52.826;6.214;2023-02-23T17:56:20;7.90;76.40
54938;DHT22;52756;52.826;6.214;2023-02-23T17:58:48;7.90;76.50
54938;DHT22;52756;52.826;6.214;2023-02-23T18:01:15;7.90;76.80
54938;DHT22;52756;52.826;6.214;2023-02-23T18:03:42;7.90;77.10
54938;DHT22;52756;52.826;6.214;2023-02-23T18:06:10;7.90;77.30
54938;DHT22;52756;52.826;6.214;2023-02-23T18:08:37;7.90;77.40
54938;DHT22;52756;52.826;6.214;2023-02-23T18:11:03;7.90;77.40
54938;DHT22;52756;52.826;6.214;2023-02-23T18:13:30;7.90;77.40
54938;DHT22;52756;52.826;6.214;2023-02-23T18:16:03;7.90;77.40
54938;DHT22;52756;52.826;6.214;2023-02-23T18:18:30;7.90;77.40
54938;DHT22;52756;52.826;6.214;2023-02-23T18:20:58;7.90;77.40